Mystic, South Dakota
Current Conditions -  °F | °C
As of 7:53 AM on Wednesday 22 Oct 2014 (Local Time) from KCUT Reporting Station
Broken Clouds Broken Clouds  
Wind Chill: 42°   Ceiling: 11000
Heat Index: 45°   Visibility: 10mi
Dew Point: 31°   Wind: 6mph
Humidity: 58%   Direction: 270°W
Pressure: 30"   Gusts: NA
Location:  43.9317°N, 103.745°W
Report Text: KCUT 221353Z AUTO 27005KT 10SM BKN110 07/M01 A3000 RMK AO2 SLP121 T00721006
Loading
Personal Weather Stations






























Interactive Weather Map
Tropical Storm Tracking
New forecast layout! Learn more

10-Day Weather Forecast

Advertisements
Track Severe Weather on mobile